KSANKSBD

Guest
Details From KSAN - San Diego Intl
To KSBD - San Bernardino Intl
Flight Number -
Tags generated
Created
Modified
Stats Distance 82 nm / 152 km
Max Altitude 600 ft / 183 m
Waypoints 3
Social Downloads 5
Likes 0
Share VATSIM

Download

Looking for another format? Having issues loading an existing format? Contact us
Advertisement - Login to hide

Notes

Basic altitude profile: - Ascent Rate: 2500ft/min - Ascent Speed: 250kts - Cruise Altitude: 35000ft - Cruise Speed: 420kts - Descent Rate: 1500ft/min - Descent Speed: 250kts Options: - Use NATs: yes - Use PACOTS: yes - Use low airways: yes - Use high airways: yes

Route

KSAN RUSTT KSBD

ID Type Via Altitude Latitude Longitude Leg Dist Tot Dist Heading (true) Name
O KSAN APT - 0 ft / 0 m 32.73356˚ -117.18966˚ - 0 nm - San Diego Intl
RUSTT FIX - 600 ft / 183 m 34.04823˚ -117.24245˚ 79 nm 79 nm 358° / 358° -
O KSBD APT - 0 ft / 0 m 34.09534˚ -117.23487˚ 2 nm 81 nm 8° / 8° San Bernardino Intl

Altitude Profile

Advertisement - Login to hide

KSAN

Details ICAO KSAN (SAN)
Name San Diego Intl
Region United States
Timezone America/Los_Angeles (UTC-7.0)
Stats Elevation 17 ft / 5 m (AMSL)
Location 32.733556° -117.189658°
Runways 1
Magnetic Variation 11.488° E

METAR

KSAN 231506Z 20006KT 10SM FEW020 SCT025 OVC032 17/12 A2998 RMK AO2 T01670117

Decode

TAF

TAF AMD KSAN 231450Z 2315/2418 18006KT P6SM BKN025 OVC035 FM231800 28010KT P6SM SCT030 TEMPO 2318/2321 BKN030 FM240200 VRB04KT P6SM SCT025 FM240500 VRB04KT P6SM SCT015 OVC025

Decode

Departure Runways

ID Width Length Bearing (true) Bearing (mag) Surface Threshold Offset Overrun Length
09 200 ft / 61 m 9,387 ft / 2,861 m 106.07° 94.58° Asphalt 699 ft / 213 m 269 ft / 82 m
27 200 ft / 61 m 9,387 ft / 2,861 m 286.08° 274.59° Asphalt 1,811 ft / 552 m 0 ft / 0 m

KSBD

Details ICAO KSBD (SBD)
Name San Bernardino Intl
Region United States
Timezone America/Los_Angeles (UTC-7.0)
Stats Elevation 1,157 ft / 353 m (AMSL)
Location 34.095343° -117.234869°
Runways 1
Magnetic Variation 11.753° E

METAR

KSBD 231447Z 00000KT 4SM HZ OVC023 15/10 A2997

Decode

TAF

TAF KSBD 231120Z 2312/2412 VRB03KT P6SM OVC020 FM231700 VRB04KT 5SM HZ SCT025 FM232000 26010KT 5SM HZ SKC FM240400 25005KT P6SM SCT020 FM240900 VRB04KT P6SM OVC018

Decode

Destination Runways

ID Width Length Bearing (true) Bearing (mag) Surface Threshold Offset Overrun Length
06 180 ft / 55 m 9,963 ft / 3,037 m 70.26° 58.51° Asphalt 0 ft / 0 m 1,000 ft / 305 m
24 180 ft / 55 m 9,963 ft / 3,037 m 250.27° 238.52° Asphalt 0 ft / 0 m 1,000 ft / 305 m

Approach Navaids

Runway Type Ident Frequency Range Bearing (true) Bearing (mag) Slope Elevation
06 Localiser ISBD 109.30 MHz 18 nm / 33 km 70.31° 58.56° - 1,086 ft / 331 m (AMSL)
06 Glidescope ISBD 109.30 MHz 10 nm / 19 km 70.27° 58.51° 3.00° 1,157 ft / 353 m (AMSL)

Popular Alternatives